Time;durP1;ratioP1;P1;durP2;ratioP2;P2;SDS_P1;SDS_P2;PMS_P1;PMS_P2;Temp;Humidity;BMP_temperature;BMP_pressure;BME280_temperature;BME280_humidity;BME280_pressure;Samples;Min_cycle;Max_cycle;Signal;HPM_P1;HPM_P2
2022/02/05 00:02:10;;;;;;;160.40;64.42;;;;;;;-8.77;66.73;100381.92;1747392;82;20949;-74
2022/02/05 00:04:34;;;;;;;145.20;58.42;;;;;;;-8.76;66.72;100369.97;1745599;82;20973;-75
2022/02/05 00:07:00;;;;;;;142.20;55.88;;;;;;;-8.77;66.65;100357.60;1747332;82;21059;-74
2022/02/05 00:09:43;;;;;;;117.85;50.75;;;;;;;-8.79;66.54;100356.73;1748152;82;22194;-75
2022/02/05 00:12:20;;;;;;;119.45;48.78;;;;;;;-8.81;66.42;100366.13;1737435;82;21471;-73
2022/02/05 00:41:19;;;;;;;104.32;49.73;;;;;;;-8.88;66.99;100315.78;1738047;82;20996;-73
2022/02/05 00:43:51;;;;;;;94.83;47.03;;;;;;;-8.90;66.94;100314.94;1746724;82;20995;-73
2022/02/05 00:46:13;;;;;;;109.22;50.75;;;;;;;-8.95;66.93;100314.97;1746783;82;20949;-73
2022/02/05 00:48:39;;;;;;;102.58;47.98;;;;;;;-8.97;66.98;100309.43;1746645;82;22520;-73
2022/02/05 00:51:16;;;;;;;98.33;46.90;;;;;;;-8.98;67.04;100305.14;1742899;82;20981;-73
2022/02/05 00:53:38;;;;;;;103.15;49.38;;;;;;;-8.99;66.99;100310.69;1741044;81;21008;-73
2022/02/05 00:58:39;;;;;;;89.30;44.15;;;;;;;-9.00;66.85;100310.27;1747909;82;21082;-74
2022/02/05 01:01:09;;;;;;;94.58;47.58;;;;;;;-9.01;66.83;100314.11;1748144;81;21791;-74
2022/02/05 01:03:36;;;;;;;93.17;45.70;;;;;;;-9.04;66.82;100321.38;1746050;80;20996;-74
2022/02/05 01:06:04;;;;;;;97.10;45.12;;;;;;;-9.06;66.69;100324.79;1747900;82;21051;-75
2022/02/05 01:08:31;;;;;;;101.92;48.15;;;;;;;-9.11;66.63;100326.05;1738100;82;20963;-74
2022/02/05 01:10:58;;;;;;;140.68;56.30;;;;;;;-9.16;66.70;100320.11;1736467;82;21076;-73
2022/02/05 01:13:26;;;;;;;147.78;56.20;;;;;;;-9.18;66.77;100323.06;1734974;82;21673;-74
2022/02/05 01:16:04;;;;;;;154.60;58.48;;;;;;;-9.20;66.81;100325.20;1747846;82;20949;-74
2022/02/05 01:18:24;;;;;;;160.67;58.40;;;;;;;-9.24;66.87;100324.37;1743966;82;21416;-73
2022/02/05 01:23:43;;;;;;;129.15;50.98;;;;;;;-9.28;66.81;100325.20;1743556;82;20993;-74
2022/02/05 01:26:13;;;;;;;127.12;49.40;;;;;;;-9.26;66.91;100326.93;1745993;81;21542;-73
2022/02/05 01:28:34;;;;;;;136.37;52.33;;;;;;;-9.23;66.93;100333.74;1744674;82;20953;-74
2022/02/05 01:31:01;;;;;;;128.07;50.28;;;;;;;-9.23;66.88;100337.58;1747417;80;21086;-74
2022/02/05 01:48:58;;;;;;;223.47;79.58;;;;;;;-9.35;66.47;100338.43;1745186;80;21455;-74
2022/02/05 01:52:36;;;;;;;571.65;208.05;;;;;;;-9.41;66.61;100346.09;1746013;82;22170;-74
2022/02/05 01:55:29;;;;;;;573.78;217.40;;;;;;;-9.40;66.73;100349.07;1744914;82;21479;-74
2022/02/05 02:04:49;;;;;;;248.45;97.88;;;;;;;-9.30;67.06;100348.66;1742885;82;20949;-74
2022/02/05 02:05:37;;;;;;;149.68;62.62;;;;;;;-9.26;67.15;100348.67;1727363;82;21911;-74
2022/02/05 02:16:02;;;;;;;142.40;62.15;;;;;;;-9.09;67.47;100349.08;1747110;82;21067;-75
2022/02/05 02:18:28;;;;;;;169.32;70.50;;;;;;;-9.08;67.47;100354.61;1739189;82;22340;-74
2022/02/05 02:23:53;;;;;;;255.55;101.47;;;;;;;-9.08;67.40;100354.61;1741137;82;21004;-74
2022/02/05 02:28:59;;;;;;;240.77;99.83;;;;;;;-9.21;67.13;100354.20;1746631;82;21035;-73
2022/02/05 02:31:24;;;;;;;213.70;88.52;;;;;;;-9.28;67.09;100352.91;1736866;80;21858;-74
2022/02/05 02:33:51;;;;;;;199.25;84.40;;;;;;;-9.32;67.10;100347.38;1747042;82;20985;-74
2022/02/05 02:36:29;;;;;;;192.62;79.42;;;;;;;-9.32;67.19;100353.77;1734014;82;21469;-74
2022/02/05 02:38:49;;;;;;;175.95;73.70;;;;;;;-9.32;67.26;100347.38;1737560;81;21024;-74
2022/02/05 02:41:19;;;;;;;154.85;67.60;;;;;;;-9.32;67.31;100342.27;1750120;81;20970;-74
2022/02/05 02:43:42;;;;;;;148.50;66.75;;;;;;;-9.32;67.36;100346.09;1750908;81;21795;-74
2022/02/05 02:46:09;;;;;;;124.85;53.98;;;;;;;-9.31;67.37;100346.95;1750917;80;21031;-74
2022/02/05 02:48:36;;;;;;;109.60;49.27;;;;;;;-9.30;67.37;100346.09;1743424;81;20997;-74
2022/02/05 02:59:29;;;;;;;127.38;53.13;;;;;;;-9.25;67.39;100344.41;1752598;81;20956;-74
2022/02/05 03:01:58;;;;;;;88.70;41.53;;;;;;;-9.31;67.46;100348.23;1751503;81;21443;-74
2022/02/05 03:04:19;;;;;;;92.75;42.58;;;;;;;-9.31;67.46;100348.23;1741131;80;21009;-74
2022/02/05 03:06:46;;;;;;;84.70;41.53;;;;;;;-9.32;67.48;100332.03;1747323;81;21087;-74
2022/02/05 03:09:14;;;;;;;89.77;43.85;;;;;;;-9.32;67.53;100332.45;1753561;81;21842;-74
2022/02/05 03:11:40;;;;;;;96.12;42.95;;;;;;;-9.32;67.55;100327.34;1752059;81;21126;-74
2022/02/05 03:14:07;;;;;;;87.22;40.10;;;;;;;-9.34;67.51;100332.89;1752521;81;21044;-74
2022/02/05 03:16:37;;;;;;;89.05;42.58;;;;;;;-9.35;67.51;100324.80;1751996;81;21096;-74
2022/02/05 03:21:30;;;;;;;92.00;44.20;;;;;;;-9.36;67.61;100321.78;1750249;81;22479;-73
2022/02/05 03:23:56;;;;;;;88.87;39.88;;;;;;;-9.37;67.65;100314.53;1752017;81;21459;-74
2022/02/05 03:26:23;;;;;;;84.00;38.55;;;;;;;-9.39;67.59;100311.56;1756602;80;21416;-73
2022/02/05 03:28:49;;;;;;;78.33;37.45;;;;;;;-9.39;67.58;100314.97;1750209;81;21400;-74
2022/02/05 03:31:15;;;;;;;70.05;33.10;;;;;;;-9.38;67.63;100304.31;1753582;81;21468;-74
2022/02/05 03:33:42;;;;;;;64.00;32.63;;;;;;;-9.37;67.69;100305.59;1751691;81;21590;-74
2022/02/05 03:36:08;;;;;;;74.95;36.58;;;;;;;-9.35;67.79;100299.22;1753128;81;21468;-74
2022/02/05 03:38:36;;;;;;;78.57;38.23;;;;;;;-9.35;67.84;100296.23;1715931;82;21004;-73
2022/02/05 03:41:03;;;;;;;75.95;36.23;;;;;;;-9.33;67.77;100294.95;1747801;82;20960;-74
2022/02/05 03:43:29;;;;;;;70.40;35.50;;;;;;;-9.34;67.67;100290.27;1747115;81;21412;-73
2022/02/05 03:45:56;;;;;;;71.92;35.85;;;;;;;-9.31;67.74;100304.75;1747948;82;21830;-74
2022/02/05 03:48:22;;;;;;;75.03;36.13;;;;;;;-9.29;67.69;100303.89;1746361;82;20953;-74
2022/02/05 03:50:49;;;;;;;68.52;34.13;;;;;;;-9.29;67.61;100294.94;1717203;82;21047;-75
2022/02/05 03:53:17;;;;;;;68.45;33.45;;;;;;;-9.28;67.64;100295.36;1741082;82;21435;-74
2022/02/05 03:55:46;;;;;;;69.03;33.45;;;;;;;-9.25;67.66;100298.37;1747742;81;21001;-74
2022/02/05 03:58:13;;;;;;;64.22;32.28;;;;;;;-9.23;67.77;100290.26;1746509;82;21853;-74
2022/02/05 04:00:41;;;;;;;60.45;32.13;;;;;;;-9.19;67.83;100294.50;1747242;82;20962;-74
2022/02/05 04:03:07;;;;;;;69.72;34.75;;;;;;;-9.16;67.84;100294.95;1747460;82;21044;-74
2022/02/05 04:05:34;;;;;;;68.40;35.80;;;;;;;-9.17;67.80;100304.30;1729801;82;21014;-74
2022/02/05 04:08:04;;;;;;;67.85;35.13;;;;;;;-9.16;67.75;100298.36;1732466;82;21414;-74
2022/02/05 04:10:32;;;;;;;67.78;35.17;;;;;;;-9.17;67.69;100286.39;1729363;82;21737;-74
2022/02/05 04:18:22;;;;;;;62.53;30.90;;;;;;;-9.18;67.81;100279.58;1712952;83;21016;-74
2022/02/05 04:20:49;;;;;;;64.40;33.67;;;;;;;-9.13;68.01;100285.98;1737042;82;21040;-73
2022/02/05 04:23:16;;;;;;;83.07;44.80;;;;;;;-9.08;68.05;100286.81;1746697;82;21872;-74
2022/02/05 04:25:42;;;;;;;178.90;97.27;;;;;;;-9.06;67.96;100291.10;1711761;83;21008;-74
2022/02/05 04:28:09;;;;;;;149.18;78.67;;;;;;;-9.00;68.21;100288.94;1734502;82;21071;-74
2022/02/05 04:30:35;;;;;;;94.03;49.38;;;;;;;-9.00;68.21;100288.94;1748130;81;21049;-74
2022/02/05 04:33:02;;;;;;;67.22;36.13;;;;;;;-8.95;68.29;100288.52;1747839;82;21045;-74
2022/02/05 04:35:29;;;;;;;49.20;25.72;;;;;;;-8.90;68.32;100298.30;1746844;82;22254;-74
2022/02/05 04:37:58;;;;;;;63.02;31.15;;;;;;;-8.89;68.17;100298.73;1744516;80;20996;-74
2022/02/05 04:40:30;;;;;;;74.37;33.80;;;;;;;-8.93;68.02;100296.19;1716842;82;21432;-74
2022/02/05 04:43:14;;;;;;;112.10;44.53;;;;;;;-8.97;68.05;100303.89;1700825;82;21406;-74
2022/02/05 04:45:54;;;;;;;121.15;46.88;;;;;;;-8.96;68.24;100302.17;1718908;82;20992;-73
2022/02/05 04:53:51;;;;;;;143.15;49.50;;;;;;;-8.78;68.51;100302.14;1731221;81;20982;-74
2022/02/05 04:58:48;;;;;;;126.50;45.63;;;;;;;-8.69;68.62;100289.29;1734035;82;21044;-73
2022/02/05 05:04:07;;;;;;;100.58;38.92;;;;;;;-8.58;68.66;100301.24;1731210;82;21064;-73
2022/02/05 05:06:47;;;;;;;93.95;39.58;;;;;;;-8.54;68.67;100302.49;1730708;82;21056;-73
2022/02/05 05:11:46;;;;;;;56.20;26.73;;;;;;;-8.48;68.72;100300.35;1735033;82;20965;-74
2022/02/05 05:19:31;;;;;;;42.73;23.90;;;;;;;-8.40;68.95;100298.16;1706985;82;20999;-75
2022/02/05 05:21:59;;;;;;;47.00;23.98;;;;;;;-8.37;69.08;100298.60;1734710;82;21056;-74
2022/02/05 05:24:25;;;;;;;40.35;22.40;;;;;;;-8.32;69.15;100307.50;1737786;82;21968;-74
2022/02/05 05:26:53;;;;;;;35.35;19.80;;;;;;;-8.31;69.22;100309.20;1734432;82;22667;-74
2022/02/05 05:29:20;;;;;;;34.65;20.80;;;;;;;-8.27;69.25;100303.22;1732523;82;20956;-74
2022/02/05 05:31:47;;;;;;;38.50;19.23;;;;;;;-8.25;69.33;100298.94;1731340;82;21052;-74
2022/02/05 05:34:14;;;;;;;47.48;25.02;;;;;;;-8.25;69.39;100304.91;1731206;83;20972;-74
2022/02/05 05:36:40;;;;;;;33.65;18.32;;;;;;;-8.22;69.47;100304.04;1731467;82;20993;-75
2022/02/05 05:39:08;;;;;;;34.53;18.77;;;;;;;-8.19;69.59;100307.46;1722071;81;22198;-74
2022/02/05 05:41:37;;;;;;;39.55;22.17;;;;;;;-8.13;69.64;100312.97;1712901;83;21479;-74
2022/02/05 05:44:22;;;;;;;44.25;23.57;;;;;;;-8.09;69.68;100305.28;1674244;83;21424;-74
2022/02/05 05:46:50;;;;;;;43.92;22.58;;;;;;;-8.02;69.77;100305.22;1714896;82;21042;-74
2022/02/05 05:49:25;;;;;;;48.23;23.52;;;;;;;-7.94;69.87;100312.45;1716995;83;20953;-74
2022/02/05 05:51:48;;;;;;;50.38;25.40;;;;;;;-7.88;69.92;100307.30;1715636;82;21750;-74
2022/02/05 05:54:15;;;;;;;47.73;21.57;;;;;;;-7.79;70.11;100309.81;1717017;83;21020;-74
2022/02/05 05:56:44;;;;;;;40.17;19.27;;;;;;;-7.71;70.16;100311.05;1717815;83;20957;-73
2022/02/05 05:59:10;;;;;;;43.23;20.95;;;;;;;-7.65;70.26;100316.98;1699667;83;20977;-74
2022/02/05 06:01:37;;;;;;;39.50;21.45;;;;;;;-7.57;70.33;100311.37;1706965;83;21035;-74
2022/02/05 06:04:04;;;;;;;36.30;19.57;;;;;;;-7.50;70.31;100308.34;1716739;83;21798;-74
2022/02/05 06:06:30;;;;;;;35.17;19.05;;;;;;;-7.44;70.34;100306.14;1717969;83;20949;-74
2022/02/05 06:08:58;;;;;;;36.40;18.40;;;;;;;-7.39;70.29;100310.39;1718327;83;20981;-74
2022/02/05 06:11:26;;;;;;;32.25;19.50;;;;;;;-7.38;70.24;100299.27;1716224;83;21098;-75
2022/02/05 06:13:53;;;;;;;48.00;28.25;;;;;;;-7.36;70.16;100305.22;1716479;83;20977;-74
2022/02/05 06:16:23;;;;;;;53.95;32.23;;;;;;;-7.35;70.16;100291.53;1718087;83;22577;-74
2022/02/05 06:18:47;;;;;;;43.52;25.32;;;;;;;-7.33;70.19;100294.96;1717843;83;20953;-74
2022/02/05 06:21:14;;;;;;;36.80;22.42;;;;;;;-7.24;70.22;100278.20;1717062;83;20957;-74
2022/02/05 06:23:40;;;;;;;30.80;18.65;;;;;;;-7.24;70.22;100278.20;1715545;83;21012;-74
2022/02/05 06:26:08;;;;;;;33.13;19.32;;;;;;;-7.15;70.33;100278.53;1707874;83;21008;-75
2022/02/05 06:28:35;;;;;;;28.77;17.60;;;;;;;-7.06;70.42;100281.02;1718010;83;21837;-74
2022/02/05 06:31:02;;;;;;;36.40;20.02;;;;;;;-6.99;70.47;100267.27;1717861;83;21017;-74
2022/02/05 06:33:29;;;;;;;38.30;21.87;;;;;;;-6.90;70.34;100281.73;1718005;83;21005;-74
2022/02/05 06:35:55;;;;;;;29.95;17.40;;;;;;;-6.81;70.48;100274.37;1717925;83;21043;-74
2022/02/05 06:38:24;;;;;;;32.25;19.27;;;;;;;-6.73;70.43;100272.58;1723930;81;21079;-74
2022/02/05 06:40:52;;;;;;;46.18;28.12;;;;;;;-6.67;70.38;100275.05;1748072;82;21900;-74
2022/02/05 06:43:19;;;;;;;36.08;22.70;;;;;;;-6.59;70.32;100269.41;1747835;81;20993;-75
2022/02/05 06:45:46;;;;;;;34.08;18.90;;;;;;;-6.56;70.20;100265.94;1747667;82;21087;-74
2022/02/05 06:48:14;;;;;;;32.73;18.50;;;;;;;-6.54;70.14;100262.51;1747983;82;21004;-74
2022/02/05 06:50:41;;;;;;;34.55;20.20;;;;;;;-6.50;70.15;100262.03;1748021;82;20950;-74
2022/02/05 06:53:08;;;;;;;35.38;17.37;;;;;;;-6.43;69.99;100261.09;1747946;82;21904;-74
2022/02/05 06:55:34;;;;;;;26.35;15.63;;;;;;;-6.37;70.23;100267.02;1744927;82;21024;-75
2022/02/05 06:58:01;;;;;;;28.30;16.35;;;;;;;-6.29;70.20;100259.62;1747148;81;20969;-74
2022/02/05 07:00:28;;;;;;;36.70;21.37;;;;;;;-6.22;70.12;100263.83;1748103;81;20946;-74
2022/02/05 07:02:54;;;;;;;33.98;17.77;;;;;;;-6.17;70.06;100249.21;1748314;82;20952;-74
2022/02/05 07:05:22;;;;;;;28.50;15.98;;;;;;;-6.13;70.02;100246.56;1747758;82;22306;-74
2022/02/05 07:07:49;;;;;;;32.63;20.88;;;;;;;-6.08;69.88;100256.77;1746294;82;21167;-74
2022/02/05 07:10:16;;;;;;;30.12;16.42;;;;;;;-6.06;69.71;100252.05;1746408;82;21522;-73
2022/02/05 07:13:28;;;;;;;27.15;15.30;;;;;;;-6.01;69.70;100252.41;1744406;82;21391;-74
2022/02/05 07:15:18;;;;;;;25.88;15.40;;;;;;;-5.99;69.56;100248.92;1722109;80;20948;-75
2022/02/05 07:17:50;;;;;;;30.35;18.20;;;;;;;-5.94;69.55;100251.02;1746779;82;21865;-74
2022/02/05 07:20:31;;;;;;;24.18;14.45;;;;;;;-5.90;69.50;100250.05;1746375;82;20957;-75
2022/02/05 07:23:14;;;;;;;26.10;14.75;;;;;;;-5.86;69.39;100241.88;1743139;82;21048;-82
2022/02/05 07:30:45;;;;;;;33.70;19.15;;;;;;;-5.66;69.34;100242.42;1747969;82;22879;-73
2022/02/05 07:33:12;;;;;;;30.32;16.97;;;;;;;-5.57;69.24;100240.14;1746275;82;21385;-76
2022/02/05 07:35:38;;;;;;;27.37;16.40;;;;;;;-5.53;69.05;100225.91;1748030;82;21040;-73
2022/02/05 07:38:06;;;;;;;29.12;17.12;;;;;;;-5.48;68.98;100227.13;1739712;80;21062;-82
2022/02/05 07:40:35;;;;;;;27.87;17.23;;;;;;;-5.45;68.90;100228.36;1736841;82;21074;-82
2022/02/05 07:43:04;;;;;;;28.38;17.52;;;;;;;-5.46;68.66;100233.09;1751910;81;21881;-82
2022/02/05 07:45:31;;;;;;;27.25;17.00;;;;;;;-5.47;68.69;100232.25;1752102;82;20945;-82
2022/02/05 07:47:58;;;;;;;27.40;16.50;;;;;;;-5.47;68.74;100234.83;1752062;81;21558;-78
2022/02/05 07:50:24;;;;;;;28.12;16.73;;;;;;;-5.43;68.83;100234.33;1748579;82;21082;-77
2022/02/05 07:52:51;;;;;;;30.65;17.80;;;;;;;-5.38;68.92;100228.67;1750500;82;21106;-84
2022/02/05 07:55:17;;;;;;;27.15;16.73;;;;;;;-5.32;68.90;100225.98;1743600;81;22197;-78
2022/02/05 07:57:44;;;;;;;30.20;16.60;;;;;;;-5.29;68.84;100220.80;1749473;81;20961;-80
2022/02/05 08:00:12;;;;;;;30.10;18.10;;;;;;;-5.26;68.82;100219.45;1700301;82;20945;-80
2022/02/05 08:02:41;;;;;;;31.75;18.90;;;;;;;-5.23;68.84;100211.66;1752078;82;21087;-75
2022/02/05 08:05:08;;;;;;;31.42;20.08;;;;;;;-5.16;68.95;100205.12;1749427;81;21008;-74
2022/02/05 08:07:36;;;;;;;28.42;18.37;;;;;;;-5.10;68.99;100202.45;1750611;82;22697;-78
2022/02/05 08:10:08;;;;;;;29.72;18.10;;;;;;;-5.03;68.95;100199.71;1750999;82;21133;-78
2022/02/05 08:12:38;;;;;;;27.48;17.52;;;;;;;-4.94;68.94;100208.55;1751115;80;21091;-75
2022/02/05 08:15:05;;;;;;;27.70;16.93;;;;;;;-4.88;68.83;100203.73;1751245;82;21011;-80
2022/02/05 08:17:35;;;;;;;34.75;19.92;;;;;;;-4.85;68.72;100203.67;1751068;82;20933;-81
2022/02/05 08:20:03;;;;;;;37.10;21.62;;;;;;;-4.83;68.63;100196.75;1738443;80;21826;-78
2022/02/05 08:22:30;;;;;;;68.28;36.68;;;;;;;-4.81;68.60;100188.58;1745630;82;21432;-81
2022/02/05 08:24:58;;;;;;;38.55;22.85;;;;;;;-4.73;68.70;100189.69;1745160;80;21075;-79
2022/02/05 08:27:24;;;;;;;40.48;23.80;;;;;;;-4.64;68.77;100188.22;1748237;82;20992;-75
2022/02/05 08:29:55;;;;;;;43.28;25.52;;;;;;;-4.56;68.81;100189.36;1746125;82;21159;-78
2022/02/05 08:32:22;;;;;;;26.20;16.48;;;;;;;-4.50;68.71;100188.80;1731375;82;21844;-76
2022/02/05 08:34:48;;;;;;;27.65;17.37;;;;;;;-4.44;68.55;100186.52;1739587;82;21566;-76
2022/02/05 08:37:14;;;;;;;27.37;16.95;;;;;;;-4.38;68.46;100182.53;1723504;83;20952;-76
2022/02/05 08:39:43;;;;;;;31.95;17.70;;;;;;;-4.34;68.28;100183.73;1738511;81;21148;-76
2022/02/05 08:42:10;;;;;;;27.50;16.90;;;;;;;-4.30;68.26;100174.19;1743949;81;20992;-76
2022/02/05 08:44:37;;;;;;;28.90;16.45;;;;;;;-4.24;68.23;100176.64;1762063;81;21724;-76
2022/02/05 08:47:04;;;;;;;29.87;17.60;;;;;;;-4.17;68.02;100176.89;1761988;81;20952;-76
2022/02/05 08:49:31;;;;;;;43.23;25.95;;;;;;;-4.11;67.99;100168.19;1761660;81;20960;-76
2022/02/05 08:52:00;;;;;;;41.08;22.90;;;;;;;-4.06;67.74;100168.47;1751156;80;20981;-76
2022/02/05 08:54:27;;;;;;;32.98;19.77;;;;;;;-3.99;67.56;100171.76;1775769;80;20992;-76
2022/02/05 08:56:55;;;;;;;29.70;18.35;;;;;;;-3.92;67.48;100166.03;1774842;80;22240;-76
2022/02/05 08:59:23;;;;;;;26.77;16.42;;;;;;;-3.87;67.31;100160.30;1775945;80;20982;-76
2022/02/05 09:01:56;;;;;;;30.95;20.57;;;;;;;-3.86;67.05;100166.73;1775679;80;20970;-76
2022/02/05 09:06:48;;;;;;;35.92;24.27;;;;;;;-3.81;66.84;100161.45;1773881;80;20945;-74
2022/02/05 09:09:36;;;;;;;34.78;21.93;;;;;;;-3.79;66.91;100155.36;1775738;80;22170;-78
2022/02/05 09:12:01;;;;;;;41.58;25.80;;;;;;;-3.74;66.76;100160.42;1771685;80;20992;-76
2022/02/05 09:16:53;;;;;;;21.77;13.30;;;;;;;-3.71;65.40;100151.31;1775801;80;21414;-77
2022/02/05 09:19:19;;;;;;;32.00;19.25;;;;;;;-3.70;64.88;100145.26;1775281;80;20990;-77
2022/02/05 09:21:46;;;;;;;36.42;20.32;;;;;;;-3.67;64.56;100146.46;1775628;80;22205;-77
2022/02/05 09:24:12;;;;;;;23.40;15.10;;;;;;;-3.62;64.46;100142.49;1774394;80;21034;-78
2022/02/05 09:26:43;;;;;;;33.65;19.42;;;;;;;-3.56;64.12;100144.93;1785152;80;20983;-77
2022/02/05 09:29:19;;;;;;;21.10;12.58;;;;;;;-3.54;63.54;100147.87;1759109;80;20994;-77
2022/02/05 09:31:40;;;;;;;21.77;15.00;;;;;;;-3.53;63.26;100155.17;1753097;81;21705;-78
2022/02/05 09:34:06;;;;;;;18.87;12.82;;;;;;;-3.52;63.18;100138.79;1755804;81;21795;-78
2022/02/05 09:36:36;;;;;;;18.80;10.43;;;;;;;-3.51;63.29;100130.16;1755637;81;21004;-78
2022/02/05 09:39:03;;;;;;;19.67;12.70;;;;;;;-3.48;63.10;100137.81;1744813;81;20942;-78
2022/02/05 09:41:31;;;;;;;18.50;12.53;;;;;;;-3.49;63.15;100138.25;1731221;81;21444;-79
2022/02/05 09:43:57;;;;;;;20.65;13.50;;;;;;;-3.44;63.36;100136.02;1742949;82;20988;-78
2022/02/05 09:46:23;;;;;;;20.35;11.80;;;;;;;-3.40;63.44;100132.45;1744915;82;21786;-79
2022/02/05 09:48:51;;;;;;;20.82;12.18;;;;;;;-3.38;63.29;100135.39;1744891;82;20993;-78
2022/02/05 09:51:30;;;;;;;23.95;12.80;;;;;;;-3.33;63.30;100135.28;1744981;82;20965;-79
2022/02/05 09:53:56;;;;;;;19.02;12.23;;;;;;;-3.34;63.44;100122.82;1712783;83;21051;-78
2022/02/05 09:56:25;;;;;;;19.30;12.33;;;;;;;-3.31;63.32;100122.73;1757511;81;20985;-78
2022/02/05 09:58:52;;;;;;;18.27;12.47;;;;;;;-3.28;63.43;100120.50;1766672;80;21823;-79
2022/02/05 10:01:25;;;;;;;17.73;11.00;;;;;;;-3.23;63.53;100116.07;1771619;80;20981;-78
2022/02/05 10:03:49;;;;;;;22.17;13.65;;;;;;;-3.19;63.28;100113.80;1765197;81;21040;-78
2022/02/05 10:06:27;;;;;;;18.77;11.85;;;;;;;-3.15;63.45;100107.67;1766496;80;21034;-79
2022/02/05 10:09:01;;;;;;;25.52;14.80;;;;;;;-3.12;63.34;100094.66;1766982;81;20958;-79
2022/02/05 10:11:31;;;;;;;25.97;13.75;;;;;;;-3.04;63.59;100099.62;1767259;80;22396;-76
2022/02/05 10:14:14;;;;;;;18.87;12.68;;;;;;;-2.95;63.54;100103.23;1766812;80;21036;-77
2022/02/05 10:16:41;;;;;;;20.60;12.98;;;;;;;-2.91;63.34;100106.13;1766977;80;21430;-78
2022/02/05 10:19:08;;;;;;;20.92;13.38;;;;;;;-2.89;63.32;100103.92;1766999;79;20976;-78
2022/02/05 10:21:34;;;;;;;35.95;16.52;;;;;;;-2.84;63.36;100096.47;1759442;80;21017;-78
2022/02/05 10:24:08;;;;;;;24.02;14.55;;;;;;;-2.82;63.29;100098.55;1745660;81;21727;-78
2022/02/05 10:26:43;;;;;;;27.42;15.58;;;;;;;-2.77;63.28;100095.41;1769250;80;21022;-78
2022/02/05 10:29:16;;;;;;;23.85;13.03;;;;;;;-2.69;63.27;100094.73;1766759;81;20939;-78
2022/02/05 10:32:10;;;;;;;24.30;13.53;;;;;;;-2.65;63.14;100093.74;1750782;81;21046;-78
2022/02/05 10:34:55;;;;;;;23.30;14.30;;;;;;;-2.62;62.97;100091.05;1766330;81;20946;-78
2022/02/05 10:37:23;;;;;;;31.35;17.92;;;;;;;-2.61;62.99;100092.33;1766135;81;21875;-76
2022/02/05 10:45:15;;;;;;;38.13;25.02;;;;;;;-2.50;62.92;100073.90;1734326;82;21095;-76
2022/02/05 10:47:56;;;;;;;29.75;20.60;;;;;;;-2.50;62.75;100079.07;1754404;81;20950;-78
2022/02/05 10:50:26;;;;;;;40.45;26.97;;;;;;;-2.51;62.96;100069.62;1771594;81;21819;-78
2022/02/05 10:53:04;;;;;;;30.60;19.52;;;;;;;-2.51;62.86;100067.03;1771562;81;20941;-78
2022/02/05 11:07:20;;;;;;;19.70;12.78;;;;;;;-2.26;63.67;100054.16;1748305;82;21511;-76
2022/02/05 11:09:52;;;;;;;19.60;11.20;;;;;;;-2.17;63.99;100049.14;1718116;82;21056;-77
2022/02/05 11:20:14;;;;;;;15.98;10.88;;;;;;;-1.94;64.59;100041.45;1730501;81;21003;-83
2022/02/05 11:22:57;;;;;;;17.62;12.07;;;;;;;-2.00;64.83;100031.33;1746179;81;21531;-78
2022/02/05 11:25:24;;;;;;;18.13;11.37;;;;;;;-2.01;65.44;100034.81;1741466;82;20972;-81
2022/02/05 11:27:52;;;;;;;24.10;15.32;;;;;;;-1.99;65.82;100033.02;1713180;82;21313;-77
2022/02/05 11:30:42;;;;;;;18.92;11.73;;;;;;;-1.98;66.19;100028.23;1717931;82;21828;-80
2022/02/05 11:33:28;;;;;;;34.95;23.92;;;;;;;-1.95;66.27;100035.88;1746274;82;20968;-81
2022/02/05 11:36:39;;;;;;;27.50;16.95;;;;;;;-1.90;66.53;100021.05;1709257;82;20969;-75
2022/02/05 11:38:34;;;;;;;25.92;17.07;;;;;;;-1.90;66.70;100018.47;1743366;82;21000;-75
2022/02/05 11:41:02;;;;;;;18.12;12.03;;;;;;;-1.91;66.90;100013.34;1747484;81;20946;-75
2022/02/05 11:43:40;;;;;;;20.15;9.43;;;;;;;-1.93;67.10;100010.82;1748028;82;22489;-79
2022/02/05 11:46:18;;;;;;;15.40;10.38;;;;;;;-1.92;67.57;99999.56;1745855;82;21012;-82
2022/02/05 11:48:54;;;;;;;17.80;10.88;;;;;;;-1.92;67.70;100007.33;1747930;81;20937;-80
2022/02/05 11:51:45;;;;;;;16.30;11.18;;;;;;;-1.94;67.78;100000.04;1747730;82;21036;-80
2022/02/05 11:54:17;;;;;;;17.77;11.00;;;;;;;-1.93;68.15;100002.17;1735997;82;21421;-81
2022/02/05 11:59:33;;;;;;;18.00;11.93;;;;;;;-1.98;68.81;99982.94;1720747;82;21448;-79
2022/02/05 12:02:17;;;;;;;21.10;13.85;;;;;;;-2.00;69.22;99993.80;1725130;82;21067;-82
2022/02/05 12:04:43;;;;;;;18.43;11.60;;;;;;;-2.03;69.65;99992.17;1709394;83;21459;-80
2022/02/05 12:07:11;;;;;;;27.32;14.20;;;;;;;-2.07;70.00;99984.09;1717726;82;21438;-79
2022/02/05 12:09:44;;;;;;;16.70;10.93;;;;;;;-2.04;70.41;99983.14;1738520;81;21541;-78
2022/02/05 12:12:35;;;;;;;17.20;10.68;;;;;;;-2.07;70.57;99975.04;1745215;82;21036;-78
2022/02/05 12:15:18;;;;;;;18.10;11.10;;;;;;;-2.11;70.71;99977.34;1732542;82;21024;-77
2022/02/05 12:20:33;;;;;;;22.75;13.22;;;;;;;-2.18;71.10;99972.42;1747002;82;21567;-79
2022/02/05 12:23:23;;;;;;;26.15;16.20;;;;;;;-2.16;71.37;99984.86;1746210;82;21000;-79
2022/02/05 12:26:02;;;;;;;23.73;16.73;;;;;;;-2.19;71.49;99982.38;1742676;82;21031;-80
2022/02/05 12:28:36;;;;;;;19.07;12.47;;;;;;;-2.23;71.66;99975.60;1746836;82;21013;-79
2022/02/05 12:31:26;;;;;;;21.68;13.25;;;;;;;-2.24;72.03;99967.45;1745809;81;21095;-78
2022/02/05 12:34:01;;;;;;;19.02;12.50;;;;;;;-2.23;72.21;99963.95;1747117;82;21075;-77
2022/02/05 12:36:40;;;;;;;20.60;12.80;;;;;;;-2.26;72.45;99959.73;1746354;82;21788;-78
2022/02/05 12:39:13;;;;;;;19.82;12.43;;;;;;;-2.28;72.64;99947.31;1745956;82;21047;-79
2022/02/05 12:42:00;;;;;;;18.75;12.60;;;;;;;-2.27;72.88;99939.95;1729786;81;21064;-79
2022/02/05 12:44:29;;;;;;;19.35;13.05;;;;;;;-2.25;73.03;99934.72;1716346;83;21047;-78
2022/02/05 12:47:08;;;;;;;24.55;13.72;;;;;;;-2.24;73.16;99928.64;1757085;81;21031;-78
2022/02/05 12:49:45;;;;;;;21.53;12.03;;;;;;;-2.21;73.23;99920.34;1748657;82;21838;-78
2022/02/05 12:52:06;;;;;;;18.35;11.38;;;;;;;-2.19;73.30;99928.05;1744370;82;21478;-78
2022/02/05 12:54:34;;;;;;;15.43;10.60;;;;;;;-2.18;73.22;99925.86;1726888;82;21073;-78
2022/02/05 12:57:01;;;;;;;16.67;10.95;;;;;;;-2.19;73.18;99926.76;1773463;80;21057;-78
2022/02/05 12:59:35;;;;;;;16.70;10.28;;;;;;;-2.18;73.28;99921.52;1773865;80;21049;-77
2022/02/05 13:02:10;;;;;;;15.85;10.03;;;;;;;-2.17;73.31;99918.48;1743415;82;21811;-76
2022/02/05 13:04:46;;;;;;;15.30;10.10;;;;;;;-2.16;73.31;99926.20;1746468;82;21036;-80
2022/02/05 13:07:21;;;;;;;14.07;9.50;;;;;;;-2.16;73.32;99926.64;1749534;80;21010;-81
2022/02/05 13:10:01;;;;;;;16.50;10.72;;;;;;;-2.15;73.35;99920.12;1774249;80;21025;-80
2022/02/05 13:12:41;;;;;;;16.70;9.98;;;;;;;-2.15;73.34;99914.94;1774349;80;21088;-80
2022/02/05 13:15:28;;;;;;;16.20;11.22;;;;;;;-2.15;73.38;99921.41;1774090;80;22516;-80
2022/02/05 13:24:50;;;;;;;20.50;12.70;;;;;;;-2.18;73.49;99910.33;1741629;80;21081;-81
2022/02/05 13:28:50;;;;;;;14.23;9.85;;;;;;;-2.18;73.42;99907.75;1759960;81;21831;-78
2022/02/05 13:36:42;;;;;;;15.23;10.43;;;;;;;-2.24;73.62;99896.31;1761268;80;20948;-77
2022/02/05 13:42:20;;;;;;;16.48;10.55;;;;;;;-2.25;73.81;99894.17;1731848;80;21804;-76
2022/02/05 13:45:18;;;;;;;14.83;9.40;;;;;;;-2.23;73.85;99896.70;1718647;83;20967;-76
2022/02/05 13:47:52;;;;;;;14.15;9.75;;;;;;;-2.23;73.90;99889.78;1719007;83;21099;-76
2022/02/05 13:50:24;;;;;;;16.23;10.60;;;;;;;-2.23;73.95;99888.48;1718209;83;21044;-76
2022/02/05 13:52:53;;;;;;;24.45;14.70;;;;;;;-2.23;73.94;99884.61;1714220;83;21135;-76
2022/02/05 13:55:32;;;;;;;24.95;16.07;;;;;;;-2.22;73.92;99885.45;1713959;83;22259;-76
2022/02/05 13:58:04;;;;;;;26.35;17.42;;;;;;;-2.22;73.90;99877.69;1691359;82;20973;-77
2022/02/05 14:00:51;;;;;;;19.45;12.80;;;;;;;-2.22;73.86;99872.09;1724205;83;21016;-77
2022/02/05 14:03:39;;;;;;;26.27;16.75;;;;;;;-2.23;73.83;99875.55;1721024;83;21032;-76